createdAt,value
2022-12-22T00:00:29.148Z,3.08
2022-12-22T00:00:59.759Z,3.08
2022-12-22T00:01:30.450Z,3.05
2022-12-22T00:02:01.260Z,3.07
2022-12-22T00:02:32.118Z,3.07
2022-12-22T00:03:03.002Z,3.07
2022-12-22T00:03:33.800Z,3.08
2022-12-22T00:04:04.471Z,3.07
2022-12-22T00:04:35.074Z,3.07
2022-12-22T00:05:05.655Z,3.08
2022-12-22T00:05:36.244Z,3.08
2022-12-22T00:06:06.812Z,3.08
2022-12-22T00:06:37.415Z,3.07
2022-12-22T00:07:07.970Z,3.10
2022-12-22T00:07:38.577Z,3.07
2022-12-22T00:08:09.269Z,3.08
2022-12-22T00:08:39.868Z,3.08
2022-12-22T00:09:10.488Z,3.07
2022-12-22T00:09:41.180Z,3.07
2022-12-22T00:10:11.752Z,3.10
2022-12-22T00:10:42.340Z,3.07
2022-12-22T00:11:12.896Z,3.07
2022-12-22T00:11:43.684Z,3.07
2022-12-22T00:12:14.262Z,3.08
2022-12-22T00:12:44.844Z,3.07
2022-12-22T00:13:15.483Z,3.08
2022-12-22T00:13:46.083Z,3.05
2022-12-22T00:14:16.662Z,3.07
2022-12-22T00:14:47.272Z,3.07
2022-12-22T00:15:17.875Z,3.07
2022-12-22T00:15:48.469Z,3.08
2022-12-22T00:16:19.118Z,3.05
2022-12-22T00:16:49.869Z,3.07
2022-12-22T00:17:20.498Z,3.05
2022-12-22T00:17:51.076Z,3.05
2022-12-22T00:18:21.683Z,3.05
2022-12-22T00:18:52.299Z,3.04
2022-12-22T00:19:22.888Z,3.05
2022-12-22T00:19:53.515Z,3.04
2022-12-22T00:20:24.089Z,3.07
2022-12-22T00:20:54.671Z,3.04
2022-12-22T00:21:25.248Z,3.04
2022-12-22T00:21:55.805Z,3.05
2022-12-22T00:22:26.411Z,3.04
2022-12-22T00:22:57.001Z,3.05
2022-12-22T00:23:27.594Z,3.04
2022-12-22T00:23:58.212Z,3.04
2022-12-22T00:24:28.899Z,3.04
2022-12-22T00:24:59.516Z,3.02
2022-12-22T00:25:30.177Z,3.05
2022-12-22T00:26:00.752Z,3.04
2022-12-22T00:26:31.319Z,3.04
2022-12-22T00:27:01.919Z,3.01
2022-12-22T00:27:32.510Z,3.04
2022-12-22T00:28:03.090Z,3.04
2022-12-22T00:28:33.684Z,3.02
2022-12-22T00:29:04.287Z,3.01
2022-12-22T00:29:34.877Z,3.01
2022-12-22T00:30:05.491Z,3.02
2022-12-22T00:30:36.164Z,3.02
2022-12-22T00:31:06.857Z,3.01
2022-12-22T00:31:37.459Z,3.01
2022-12-22T00:32:08.037Z,2.99
2022-12-22T00:32:38.692Z,3.01
2022-12-22T00:33:09.265Z,2.99
2022-12-22T00:33:39.948Z,3.01
2022-12-22T00:34:10.545Z,2.99
2022-12-22T00:34:41.158Z,3.01
2022-12-22T00:35:11.715Z,3.02
2022-12-22T00:35:42.295Z,3.02
2022-12-22T00:36:12.939Z,3.01
2022-12-22T00:36:43.506Z,2.99
2022-12-22T00:37:14.089Z,2.99
2022-12-22T00:37:44.670Z,3.01
2022-12-22T00:38:15.229Z,2.98
2022-12-22T00:38:45.823Z,3.01
2022-12-22T00:39:16.416Z,3.01
2022-12-22T00:39:47.011Z,3.01
2022-12-22T00:40:17.618Z,2.99
2022-12-22T00:40:48.233Z,3.01
2022-12-22T00:41:18.811Z,3.01
2022-12-22T00:41:49.391Z,3.01
2022-12-22T00:42:20.059Z,2.98
2022-12-22T00:42:50.613Z,2.98
2022-12-22T00:43:21.180Z,2.98
2022-12-22T00:43:51.827Z,2.98
2022-12-22T00:44:22.414Z,2.99
2022-12-22T00:44:52.983Z,2.99
2022-12-22T00:45:23.587Z,2.98
2022-12-22T00:45:54.201Z,2.98
2022-12-22T00:46:24.826Z,2.97
2022-12-22T00:46:55.406Z,2.98
2022-12-22T00:47:26.002Z,2.97
2022-12-22T00:47:56.598Z,2.98
2022-12-22T00:48:27.144Z,2.97
2022-12-22T00:48:58.136Z,2.98
2022-12-22T00:49:28.719Z,2.97
2022-12-22T00:49:59.280Z,2.98
2022-12-22T00:50:29.869Z,2.97
2022-12-22T00:51:00.457Z,2.94
2022-12-22T00:51:31.035Z,2.95
2022-12-22T00:52:01.646Z,2.95
2022-12-22T00:52:32.272Z,2.98
2022-12-22T00:53:02.850Z,2.97
2022-12-22T00:53:33.459Z,2.97
2022-12-22T00:54:04.023Z,2.95
2022-12-22T00:54:34.640Z,2.95
2022-12-22T00:55:05.315Z,2.95
2022-12-22T00:55:35.895Z,2.97
2022-12-22T00:56:06.486Z,2.98
2022-12-22T00:56:37.280Z,2.97
2022-12-22T00:57:07.932Z,2.97
2022-12-22T00:57:38.509Z,2.97
2022-12-22T00:58:09.103Z,2.97
2022-12-22T00:58:39.681Z,2.97
2022-12-22T00:59:10.277Z,2.98
2022-12-22T00:59:40.867Z,2.95
2022-12-22T01:00:11.463Z,2.98
2022-12-22T01:00:42.101Z,2.97
2022-12-22T01:01:12.739Z,2.98
2022-12-22T01:01:43.465Z,2.97
2022-12-22T01:02:14.372Z,2.99
2022-12-22T01:02:45.151Z,2.97
2022-12-22T01:03:15.867Z,2.98
2022-12-22T01:03:46.551Z,2.98
2022-12-22T01:04:17.115Z,2.98
2022-12-22T01:04:47.688Z,2.98
2022-12-22T01:05:18.271Z,2.99
2022-12-22T01:05:48.884Z,2.98
2022-12-22T01:06:19.447Z,2.99
2022-12-22T01:06:50.079Z,2.99
2022-12-22T01:07:20.632Z,3.02
2022-12-22T01:07:51.234Z,3.01
2022-12-22T01:08:21.789Z,3.01
2022-12-22T01:08:52.359Z,2.99
2022-12-22T01:09:22.972Z,3.01
2022-12-22T01:09:53.772Z,3.02
2022-12-22T01:10:24.370Z,3.01
2022-12-22T01:10:54.956Z,3.01
2022-12-22T01:11:25.553Z,3.02
2022-12-22T01:11:56.159Z,3.01
2022-12-22T01:12:26.734Z,3.04
2022-12-22T01:12:57.514Z,3.01
2022-12-22T01:13:28.286Z,3.04
2022-12-22T01:13:58.917Z,3.02
2022-12-22T01:14:29.495Z,3.04
2022-12-22T01:15:00.092Z,3.05
2022-12-22T01:15:30.735Z,3.04
2022-12-22T01:16:01.452Z,3.04
2022-12-22T01:16:32.112Z,3.04
2022-12-22T01:17:02.723Z,3.02
2022-12-22T01:17:33.329Z,3.04
2022-12-22T01:18:03.930Z,3.04
2022-12-22T01:18:34.543Z,3.04
2022-12-22T01:19:05.093Z,3.04
2022-12-22T01:19:35.641Z,3.04
2022-12-22T01:20:06.258Z,3.02
2022-12-22T01:20:36.824Z,3.04
2022-12-22T01:21:07.407Z,3.05
2022-12-22T01:21:37.986Z,3.04
2022-12-22T01:22:08.533Z,3.05
2022-12-22T01:22:39.108Z,3.05
2022-12-22T01:23:09.716Z,3.07
2022-12-22T01:23:40.386Z,3.05
2022-12-22T01:24:10.981Z,3.05
2022-12-22T01:24:41.553Z,3.07
2022-12-22T01:25:12.137Z,3.07
2022-12-22T01:25:42.712Z,3.08
2022-12-22T01:26:13.316Z,3.05
2022-12-22T01:26:44.049Z,3.07
2022-12-22T01:27:14.695Z,3.05
2022-12-22T01:27:45.273Z,3.05
2022-12-22T01:28:15.846Z,3.05
2022-12-22T01:28:46.426Z,3.08
2022-12-22T01:29:17.015Z,3.08
2022-12-22T01:29:47.647Z,3.10
2022-12-22T01:30:18.208Z,3.07
2022-12-22T01:30:48.801Z,3.08
2022-12-22T01:31:19.399Z,3.07
2022-12-22T01:31:49.975Z,3.10
2022-12-22T01:32:20.604Z,3.08
2022-12-22T01:32:51.184Z,3.10
2022-12-22T01:33:21.787Z,3.10
2022-12-22T01:33:52.402Z,3.12
2022-12-22T01:34:22.977Z,3.10
2022-12-22T01:34:53.573Z,3.10
2022-12-22T01:35:24.183Z,3.08
2022-12-22T01:35:54.776Z,3.10
2022-12-22T01:36:25.389Z,3.10
2022-12-22T01:36:56.379Z,3.12
2022-12-22T01:37:26.963Z,3.12
2022-12-22T01:37:57.635Z,3.10
2022-12-22T01:38:28.252Z,3.12
2022-12-22T01:38:58.851Z,3.12
2022-12-22T01:39:29.425Z,3.12
2022-12-22T01:40:00.061Z,3.12
2022-12-22T01:40:30.615Z,3.12
2022-12-22T01:41:01.208Z,3.13
2022-12-22T01:41:31.968Z,3.13
2022-12-22T01:42:02.560Z,3.15
2022-12-22T01:42:33.116Z,3.15
2022-12-22T01:43:03.759Z,3.13
2022-12-22T01:43:34.447Z,3.13
2022-12-22T01:44:05.134Z,3.15
2022-12-22T01:44:35.763Z,3.13
2022-12-22T01:45:06.361Z,3.16
2022-12-22T01:45:36.928Z,3.15
2022-12-22T01:46:07.544Z,3.15
2022-12-22T01:46:38.235Z,3.13
2022-12-22T01:47:08.845Z,3.15
2022-12-22T01:47:39.430Z,3.15
2022-12-22T01:48:10.010Z,3.15
2022-12-22T01:48:40.570Z,3.13
2022-12-22T01:49:11.198Z,3.15
2022-12-22T01:49:41.739Z,3.15
2022-12-22T01:50:12.311Z,3.13
2022-12-22T01:50:42.938Z,3.15
2022-12-22T01:51:13.564Z,3.15
2022-12-22T01:51:44.145Z,3.15
2022-12-22T01:52:14.785Z,3.15
2022-12-22T01:52:45.447Z,3.15
2022-12-22T01:53:19.800Z,3.13
2022-12-22T01:53:47.058Z,3.16
2022-12-22T01:54:17.610Z,3.15
2022-12-22T01:54:48.175Z,3.15
2022-12-22T01:55:18.751Z,3.16
2022-12-22T01:55:49.343Z,3.13
2022-12-22T01:56:19.934Z,3.13
2022-12-22T01:56:50.534Z,3.15
2022-12-22T01:57:21.132Z,3.13
2022-12-22T01:57:51.712Z,3.15
2022-12-22T01:58:22.315Z,3.13
2022-12-22T01:58:52.947Z,3.15
2022-12-22T01:59:23.584Z,3.15
2022-12-22T01:59:54.220Z,3.16
2022-12-22T02:00:24.824Z,3.15
2022-12-22T02:00:55.406Z,3.16
2022-12-22T02:01:26.123Z,3.19
2022-12-22T02:01:56.779Z,3.17
2022-12-22T02:02:27.642Z,3.16
2022-12-22T02:02:58.403Z,3.19
2022-12-22T02:03:29.123Z,3.19
2022-12-22T02:03:59.855Z,3.20
2022-12-22T02:04:30.457Z,3.19
2022-12-22T02:05:01.044Z,3.22
2022-12-22T02:05:31.633Z,3.22
2022-12-22T02:06:02.188Z,3.23
2022-12-22T02:06:32.775Z,3.28
2022-12-22T02:07:03.441Z,3.31
2022-12-22T02:07:34.016Z,3.34
2022-12-22T02:08:04.605Z,3.35
2022-12-22T02:08:35.186Z,3.39
2022-12-22T02:09:05.768Z,3.39
2022-12-22T02:09:36.347Z,3.41
2022-12-22T02:10:06.947Z,3.44
2022-12-22T02:10:37.562Z,3.45
2022-12-22T02:11:08.125Z,3.46
2022-12-22T02:11:38.713Z,3.46
2022-12-22T02:12:09.286Z,3.50
2022-12-22T02:12:39.900Z,3.52
2022-12-22T02:13:10.531Z,3.53
2022-12-22T02:13:41.115Z,3.52
2022-12-22T02:14:11.723Z,3.56
2022-12-22T02:14:42.329Z,3.59
2022-12-22T02:15:12.881Z,3.59
2022-12-22T02:15:43.525Z,3.62
2022-12-22T02:16:14.181Z,3.62
2022-12-22T02:16:44.730Z,3.64
2022-12-22T02:17:15.321Z,3.62
2022-12-22T02:17:45.889Z,3.64
2022-12-22T02:18:16.529Z,3.63
2022-12-22T02:18:47.112Z,3.63
2022-12-22T02:19:17.715Z,3.62
2022-12-22T02:19:48.333Z,3.64
2022-12-22T02:20:18.891Z,3.67
2022-12-22T02:20:49.535Z,3.67
2022-12-22T02:21:20.082Z,3.67
2022-12-22T02:21:50.686Z,3.70
2022-12-22T02:22:21.265Z,3.67
2022-12-22T02:22:51.865Z,3.68
2022-12-22T02:23:22.454Z,3.67
2022-12-22T02:23:53.043Z,3.70
2022-12-22T02:24:23.629Z,3.70
2022-12-22T02:24:54.215Z,3.70
2022-12-22T02:25:24.815Z,3.71
2022-12-22T02:25:55.435Z,3.71
2022-12-22T02:26:26.005Z,3.72
2022-12-22T02:26:56.605Z,3.74
2022-12-22T02:27:27.149Z,3.72
2022-12-22T02:27:57.739Z,3.74
2022-12-22T02:28:28.311Z,3.74
2022-12-22T02:28:58.900Z,3.74
2022-12-22T02:29:29.480Z,3.75
2022-12-22T02:30:00.075Z,3.77
2022-12-22T02:30:30.667Z,3.78
2022-12-22T02:31:01.510Z,3.81
2022-12-22T02:31:32.169Z,3.80
2022-12-22T02:32:02.800Z,3.81
2022-12-22T02:32:33.396Z,3.81
2022-12-22T02:33:09.482Z,3.81
2022-12-22T02:33:34.751Z,3.84
2022-12-22T02:34:05.356Z,3.86
2022-12-22T02:34:36.031Z,3.88
2022-12-22T02:35:06.651Z,3.89
2022-12-22T02:35:37.198Z,3.92
2022-12-22T02:36:07.780Z,3.92
2022-12-22T02:36:38.383Z,3.93
2022-12-22T02:37:08.941Z,3.96
2022-12-22T02:37:39.756Z,3.96
2022-12-22T02:38:10.391Z,3.96
2022-12-22T02:38:41.027Z,4.00
2022-12-22T02:39:11.626Z,4.02
2022-12-22T02:39:42.228Z,4.06
2022-12-22T02:40:12.820Z,4.07
2022-12-22T02:40:43.425Z,4.08
2022-12-22T02:41:14.046Z,4.08
2022-12-22T02:41:44.659Z,4.11
2022-12-22T02:42:15.248Z,4.10
2022-12-22T02:42:45.868Z,4.11
2022-12-22T02:43:16.467Z,4.13
2022-12-22T02:43:47.057Z,4.13
2022-12-22T02:44:17.697Z,4.16
2022-12-22T02:44:48.309Z,4.17
2022-12-22T02:45:18.894Z,4.18
2022-12-22T02:45:49.491Z,4.18
2022-12-22T02:46:20.196Z,4.21
2022-12-22T02:46:50.811Z,4.24
2022-12-22T02:47:21.386Z,4.26
2022-12-22T02:47:51.964Z,4.28
2022-12-22T02:48:22.580Z,4.28
2022-12-22T02:48:53.187Z,4.29
2022-12-22T02:49:23.771Z,4.28
2022-12-22T02:49:54.439Z,4.29
2022-12-22T02:50:25.077Z,4.29
2022-12-22T02:50:55.730Z,4.31
2022-12-22T02:51:26.712Z,4.29
2022-12-22T02:51:56.504Z,4.31
2022-12-22T02:52:27.341Z,4.29
2022-12-22T02:52:59.000Z,4.29
2022-12-22T02:53:29.761Z,4.28
2022-12-22T02:54:00.409Z,4.29
2022-12-22T02:54:31.031Z,4.26
2022-12-22T02:55:01.655Z,4.28
2022-12-22T02:55:32.269Z,4.29
2022-12-22T02:56:02.892Z,4.29
2022-12-22T02:56:33.551Z,4.31
2022-12-22T02:57:04.124Z,4.35
2022-12-22T02:57:34.734Z,4.38
2022-12-22T02:58:04.723Z,4.42
2022-12-22T02:59:51.375Z,4.43
2022-12-22T03:00:33.790Z,4.44
2022-12-22T03:01:05.534Z,4.47
2022-12-22T03:03:22.038Z,4.49
2022-12-22T03:05:22.519Z,4.50
2022-12-22T03:08:10.241Z,4.51
2022-12-22T03:09:40.745Z,4.49
2022-12-22T03:11:16.593Z,4.51
2022-12-22T03:13:03.596Z,4.57
2022-12-22T03:14:33.796Z,4.61
2022-12-22T03:15:05.494Z,4.64
2022-12-22T03:18:07.335Z,4.67
2022-12-22T03:19:40.405Z,4.68
2022-12-22T03:21:28.799Z,4.71
2022-12-22T03:24:00.865Z,4.69
2022-12-22T03:25:30.836Z,4.68
2022-12-22T03:27:47.557Z,4.71
2022-12-22T03:56:24.341Z,4.68
2022-12-22T03:57:22.172Z,4.72
2022-12-22T03:57:54.168Z,4.77
2022-12-22T03:58:24.825Z,4.79
2022-12-22T03:58:55.397Z,4.83
2022-12-22T04:00:43.821Z,4.80
2022-12-22T04:03:36.305Z,4.83
2022-12-22T04:05:08.284Z,4.84
2022-12-22T04:05:38.464Z,4.90
2022-12-22T04:07:08.534Z,4.90
2022-12-22T04:07:40.218Z,4.96
2022-12-22T04:08:10.802Z,4.99
2022-12-22T04:08:41.387Z,5.02
2022-12-22T04:10:28.039Z,5.05
2022-12-22T04:10:59.692Z,5.09
2022-12-22T04:11:30.366Z,5.09
2022-12-22T04:12:00.908Z,5.11
2022-12-22T04:12:31.514Z,5.14
2022-12-22T04:13:02.172Z,5.14
2022-12-22T04:14:34.603Z,5.11
2022-12-22T04:15:47.925Z,5.15
2022-12-22T04:16:19.644Z,5.20
2022-12-22T04:17:04.461Z,5.20
2022-12-22T04:17:36.091Z,5.23
2022-12-22T04:18:06.731Z,5.24
2022-12-22T04:18:37.575Z,5.26
2022-12-22T04:21:10.029Z,5.24
2022-12-22T04:24:58.066Z,5.22
2022-12-22T04:26:28.032Z,5.24
2022-12-22T04:26:59.715Z,5.27
2022-12-22T04:27:30.324Z,5.27
2022-12-22T04:28:00.959Z,5.24
2022-12-22T04:30:34.024Z,5.24
2022-12-22T04:31:05.706Z,5.26
2022-12-22T04:33:07.024Z,5.22
2022-12-22T04:33:58.946Z,5.15
2022-12-22T04:34:29.980Z,5.17
2022-12-22T04:35:01.618Z,5.20
2022-12-22T04:35:32.249Z,5.22
2022-12-22T04:36:03.048Z,5.22
2022-12-22T04:37:49.271Z,5.23
2022-12-22T04:39:19.854Z,5.23
2022-12-22T04:39:50.439Z,5.26
2022-12-22T04:40:21.316Z,5.27
2022-12-22T04:40:51.027Z,5.27
2022-12-22T04:41:22.734Z,5.30
2022-12-22T04:41:53.396Z,5.35
2022-12-22T04:42:24.012Z,5.35
2022-12-22T04:42:54.849Z,5.35
2022-12-22T04:43:24.625Z,5.35
2022-12-22T04:47:05.034Z,5.41
2022-12-22T05:11:30.870Z,5.30
2022-12-22T05:12:01.850Z,5.35
2022-12-22T05:12:49.464Z,5.37
2022-12-22T05:14:42.719Z,5.41
2022-12-22T05:15:14.362Z,5.44
2022-12-22T05:15:44.940Z,5.44
2022-12-22T05:16:15.599Z,5.45
2022-12-22T05:16:46.249Z,5.44
2022-12-22T05:17:16.811Z,5.42
2022-12-22T05:17:47.427Z,5.44
2022-12-22T05:18:18.005Z,5.45
2022-12-22T05:18:48.584Z,5.45
2022-12-22T05:19:19.168Z,5.44
2022-12-22T05:19:49.845Z,5.44
2022-12-22T05:20:20.409Z,5.42
2022-12-22T05:20:51.035Z,5.44
2022-12-22T05:21:21.614Z,5.47
2022-12-22T05:21:52.201Z,5.45
2022-12-22T05:22:22.801Z,5.48
2022-12-22T05:22:52.779Z,5.49
2022-12-22T05:23:24.465Z,5.49
2022-12-22T05:23:55.051Z,5.48
2022-12-22T05:24:25.635Z,5.51
2022-12-22T05:24:56.260Z,5.52
2022-12-22T05:25:32.875Z,5.58
2022-12-22T05:25:57.825Z,5.58
2022-12-22T05:26:28.415Z,5.56
2022-12-22T05:26:59.053Z,5.59
2022-12-22T05:27:29.609Z,5.59
2022-12-22T05:28:00.217Z,5.59
2022-12-22T05:28:30.793Z,5.56
2022-12-22T05:29:01.356Z,5.55
2022-12-22T05:29:31.994Z,5.56
2022-12-22T05:30:02.566Z,5.52
2022-12-22T05:30:33.283Z,5.52
2022-12-22T05:31:03.928Z,5.52
2022-12-22T05:31:34.657Z,5.52
2022-12-22T05:32:05.399Z,5.55
2022-12-22T05:32:35.968Z,5.51
2022-12-22T05:33:06.576Z,5.51
2022-12-22T05:33:36.457Z,5.52
2022-12-22T05:34:08.144Z,5.51
2022-12-22T05:34:38.717Z,5.51
2022-12-22T05:35:10.547Z,5.48
2022-12-22T05:35:40.072Z,5.51
2022-12-22T05:36:10.684Z,5.49
2022-12-22T05:36:41.268Z,5.49
2022-12-22T05:37:12.001Z,5.48
2022-12-22T05:37:42.612Z,5.47
2022-12-22T05:38:13.198Z,5.47
2022-12-22T05:38:43.839Z,5.42
2022-12-22T05:39:14.429Z,5.45
2022-12-22T05:39:44.989Z,5.42
2022-12-22T05:41:14.175Z,5.37
2022-12-22T05:41:46.096Z,5.38
2022-12-22T05:42:16.759Z,5.38
2022-12-22T05:42:50.343Z,5.37
2022-12-22T05:43:19.869Z,5.40
2022-12-22T05:43:50.957Z,5.40
2022-12-22T05:44:21.673Z,5.40
2022-12-22T05:46:08.183Z,5.37
2022-12-22T05:46:39.961Z,5.40
2022-12-22T05:47:10.560Z,5.40
2022-12-22T05:47:41.151Z,5.41
2022-12-22T05:48:11.738Z,5.41
2022-12-22T05:48:42.351Z,5.40
2022-12-22T05:49:13.007Z,5.41
2022-12-22T05:49:43.603Z,5.40
2022-12-22T05:50:14.178Z,5.40
2022-12-22T05:50:44.760Z,5.38
2022-12-22T05:51:15.376Z,5.40
2022-12-22T05:51:45.980Z,5.40
2022-12-22T05:52:16.556Z,5.40
2022-12-22T05:52:47.128Z,5.41
2022-12-22T05:53:17.818Z,5.40
2022-12-22T05:53:48.436Z,5.42
2022-12-22T05:54:19.034Z,5.42
2022-12-22T05:54:49.614Z,5.45
2022-12-22T05:55:20.256Z,5.47
2022-12-22T05:55:50.856Z,5.47
2022-12-22T05:56:21.466Z,5.45
2022-12-22T05:56:52.245Z,5.47
2022-12-22T05:57:22.857Z,5.48
2022-12-22T05:57:53.417Z,5.45
2022-12-22T05:58:24.060Z,5.47
2022-12-22T05:58:54.629Z,5.47
2022-12-22T05:59:25.212Z,5.47
2022-12-22T05:59:55.811Z,5.48
2022-12-22T06:00:26.408Z,5.49
2022-12-22T06:00:57.015Z,5.48
2022-12-22T06:01:27.631Z,5.48
2022-12-22T06:01:58.255Z,5.48
2022-12-22T06:02:29.067Z,5.49
2022-12-22T06:02:59.891Z,5.49
2022-12-22T06:03:30.744Z,5.52
2022-12-22T06:04:01.612Z,5.58
2022-12-22T06:04:32.341Z,5.60
2022-12-22T06:05:02.956Z,5.62
2022-12-22T06:05:33.614Z,5.65
2022-12-22T06:06:04.208Z,5.66
2022-12-22T06:06:34.833Z,5.69
2022-12-22T06:07:05.415Z,5.69
2022-12-22T06:07:36.003Z,5.73
2022-12-22T06:08:06.569Z,5.73
2022-12-22T06:08:37.153Z,5.75
2022-12-22T06:09:07.772Z,5.74
2022-12-22T06:09:38.373Z,5.74
2022-12-22T06:10:12.360Z,5.74
2022-12-22T06:10:39.761Z,5.75
2022-12-22T06:11:10.468Z,5.75
2022-12-22T06:11:41.031Z,5.75
2022-12-22T06:12:11.637Z,5.80
2022-12-22T06:12:42.257Z,5.81
2022-12-22T06:13:12.812Z,5.81
2022-12-22T06:13:43.394Z,5.81
2022-12-22T06:14:14.014Z,5.81
2022-12-22T06:14:44.603Z,5.83
2022-12-22T06:15:14.485Z,5.83
2022-12-22T06:15:46.191Z,5.83
2022-12-22T06:16:17.046Z,5.83
2022-12-22T06:16:47.625Z,5.84
2022-12-22T06:17:18.194Z,5.84
2022-12-22T06:17:48.771Z,5.84
2022-12-22T06:18:19.344Z,5.81
2022-12-22T06:18:49.915Z,5.81
2022-12-22T06:19:20.535Z,5.81
2022-12-22T06:19:51.106Z,5.78
2022-12-22T06:20:21.681Z,5.75
2022-12-22T06:20:52.292Z,5.75
2022-12-22T06:21:22.875Z,5.73
2022-12-22T06:21:53.564Z,5.74
2022-12-22T06:22:24.135Z,5.74
2022-12-22T06:22:54.733Z,5.75
2022-12-22T06:23:25.357Z,5.75
2022-12-22T06:23:55.924Z,5.78
2022-12-22T06:24:26.529Z,5.78
2022-12-22T06:24:57.108Z,5.78
2022-12-22T06:25:27.853Z,5.80
2022-12-22T06:25:58.455Z,5.80
2022-12-22T06:26:29.002Z,5.80
2022-12-22T06:26:59.607Z,5.80
2022-12-22T06:27:30.187Z,5.81
2022-12-22T06:28:00.785Z,5.84
2022-12-22T06:28:31.379Z,5.87
2022-12-22T06:29:01.983Z,5.85
2022-12-22T06:29:32.568Z,5.87
2022-12-22T06:30:03.134Z,5.90
2022-12-22T06:30:34.108Z,5.93
2022-12-22T06:31:04.823Z,5.95
2022-12-22T06:31:35.434Z,5.98
2022-12-22T06:32:06.047Z,5.99
2022-12-22T06:32:36.634Z,5.98
2022-12-22T06:33:07.248Z,5.98
2022-12-22T06:33:37.842Z,5.96
2022-12-22T06:34:08.418Z,5.98
2022-12-22T06:34:39.015Z,5.96
2022-12-22T06:35:09.601Z,5.96
2022-12-22T06:35:40.180Z,5.98
2022-12-22T06:36:10.776Z,5.96
2022-12-22T06:36:41.361Z,5.98
2022-12-22T06:37:11.975Z,5.96
2022-12-22T06:37:42.561Z,5.95
2022-12-22T06:38:13.111Z,5.93
2022-12-22T06:38:43.607Z,5.93
2022-12-22T06:39:14.198Z,5.93
2022-12-22T06:39:44.773Z,5.93
2022-12-22T06:40:15.334Z,5.95
2022-12-22T06:40:45.940Z,5.95
2022-12-22T06:41:16.553Z,5.98
2022-12-22T06:41:47.077Z,5.95
2022-12-22T06:42:17.627Z,5.93
2022-12-22T06:42:48.139Z,5.95
2022-12-22T06:43:18.680Z,5.95
2022-12-22T06:43:49.179Z,5.93
2022-12-22T06:44:19.733Z,5.92
2022-12-22T06:44:50.424Z,5.93
2022-12-22T06:45:20.998Z,5.93
2022-12-22T06:45:51.589Z,5.93
2022-12-22T06:46:22.202Z,5.95
2022-12-22T06:46:52.810Z,5.96
2022-12-22T06:47:23.390Z,5.99
2022-12-22T06:47:53.924Z,5.98
2022-12-22T06:48:24.666Z,5.98
2022-12-22T06:48:55.202Z,5.98
2022-12-22T06:49:25.768Z,6.01
2022-12-22T06:49:56.284Z,6.03
2022-12-22T06:50:27.310Z,6.03
2022-12-22T06:50:58.347Z,6.03
2022-12-22T06:51:28.895Z,6.02
2022-12-22T06:51:59.951Z,6.05
2022-12-22T06:52:30.650Z,6.05
2022-12-22T06:53:01.214Z,6.06
2022-12-22T06:53:31.735Z,6.08
2022-12-22T06:54:02.263Z,6.06
2022-12-22T06:54:32.812Z,6.06
2022-12-22T06:55:03.330Z,6.08
2022-12-22T06:55:33.878Z,6.08
2022-12-22T06:56:04.395Z,6.06
2022-12-22T06:56:34.910Z,6.06
2022-12-22T06:57:05.450Z,6.06
2022-12-22T06:57:35.992Z,6.05
2022-12-22T06:58:06.562Z,6.05
2022-12-22T06:58:37.222Z,6.03
2022-12-22T06:59:07.722Z,6.03
2022-12-22T06:59:38.227Z,6.03
2022-12-22T07:00:09.261Z,6.02
2022-12-22T07:00:39.794Z,6.02
2022-12-22T07:01:10.325Z,6.01
2022-12-22T07:01:40.953Z,6.01
2022-12-22T07:02:11.684Z,5.98
2022-12-22T07:02:42.551Z,5.96
2022-12-22T07:03:13.550Z,5.96
2022-12-22T07:03:44.250Z,5.95
2022-12-22T07:04:14.865Z,5.95
2022-12-22T07:04:45.376Z,5.93
2022-12-22T07:05:15.910Z,5.90
2022-12-22T07:05:46.444Z,5.88
2022-12-22T07:06:16.947Z,5.87
2022-12-22T07:06:47.499Z,5.85
2022-12-22T07:07:18.035Z,5.84
2022-12-22T07:07:49.072Z,5.83
2022-12-22T07:08:19.603Z,5.80
2022-12-22T07:08:50.156Z,5.78
2022-12-22T07:09:20.668Z,5.80
2022-12-22T07:09:51.706Z,5.81
2022-12-22T07:10:22.242Z,5.83
2022-12-22T07:10:52.777Z,5.80
2022-12-22T07:11:23.310Z,5.80
2022-12-22T07:11:53.832Z,5.77
2022-12-22T07:12:24.408Z,5.78
2022-12-22T07:12:54.934Z,5.77
2022-12-22T07:13:25.471Z,5.75
2022-12-22T07:13:56.023Z,5.75
2022-12-22T07:14:26.543Z,5.75
2022-12-22T07:14:57.066Z,5.73
2022-12-22T07:15:28.094Z,5.74
2022-12-22T07:16:01.214Z,5.74
2022-12-22T07:16:29.294Z,5.75
2022-12-22T07:16:59.840Z,5.73
2022-12-22T07:17:30.586Z,5.73
2022-12-22T07:18:01.159Z,5.74
2022-12-22T07:18:31.670Z,5.75
2022-12-22T07:19:02.442Z,5.80
2022-12-22T07:19:32.951Z,5.77
2022-12-22T07:20:03.584Z,5.80
2022-12-22T07:20:34.285Z,5.81
2022-12-22T07:21:04.851Z,5.80
2022-12-22T07:21:35.389Z,5.81
2022-12-22T07:22:05.928Z,5.83
2022-12-22T07:22:36.965Z,5.85
2022-12-22T07:23:08.043Z,5.85
2022-12-22T07:23:38.720Z,5.88
2022-12-22T07:24:09.238Z,5.87
2022-12-22T07:24:40.274Z,5.90
2022-12-22T07:25:11.329Z,5.93
2022-12-22T07:25:41.858Z,5.98
2022-12-22T07:26:12.372Z,6.03
2022-12-22T07:26:43.419Z,6.05
2022-12-22T07:27:14.007Z,6.06
2022-12-22T07:27:44.542Z,6.11
2022-12-22T07:28:20.197Z,6.13
2022-12-22T07:28:45.835Z,6.14
2022-12-22T07:29:16.436Z,6.13
2022-12-22T07:29:46.943Z,6.16
2022-12-22T07:30:17.465Z,6.20
2022-12-22T07:30:48.018Z,6.20
2022-12-22T07:31:18.579Z,6.20
2022-12-22T07:31:49.230Z,6.21
2022-12-22T07:32:19.791Z,6.25
2022-12-22T07:32:50.551Z,6.27
2022-12-22T07:33:21.077Z,6.28
2022-12-22T07:33:51.586Z,6.32
2022-12-22T07:34:22.140Z,6.32
2022-12-22T07:34:52.678Z,6.33
2022-12-22T07:35:23.708Z,6.33
2022-12-22T07:35:54.234Z,6.36
2022-12-22T07:36:25.262Z,6.35
2022-12-22T07:36:55.790Z,6.36
2022-12-22T07:37:26.836Z,6.39
2022-12-22T07:37:57.355Z,6.40
2022-12-22T07:38:27.886Z,6.40
2022-12-22T07:38:58.460Z,6.40
2022-12-22T07:39:28.962Z,6.45
2022-12-22T07:39:59.481Z,6.45
2022-12-22T07:40:30.015Z,6.46
2022-12-22T07:41:04.885Z,6.48
2022-12-22T07:41:31.205Z,6.48
2022-12-22T07:42:01.706Z,6.48
2022-12-22T07:42:32.541Z,6.54
2022-12-22T07:43:03.501Z,6.53
2022-12-22T07:43:34.084Z,6.55
2022-12-22T07:44:04.668Z,6.55
2022-12-22T07:44:35.199Z,6.57
2022-12-22T07:45:05.738Z,6.57
2022-12-22T07:45:36.250Z,6.60
2022-12-22T07:46:06.840Z,6.63
2022-12-22T07:46:37.407Z,6.63
2022-12-22T07:47:07.932Z,6.64
2022-12-22T07:47:38.511Z,6.69
2022-12-22T07:48:09.035Z,6.71
2022-12-22T07:48:39.561Z,6.72
2022-12-22T07:49:10.110Z,6.71
2022-12-22T07:49:40.634Z,6.72
2022-12-22T07:50:11.183Z,6.75
2022-12-22T07:50:41.702Z,6.75
2022-12-22T07:51:12.235Z,6.73
2022-12-22T07:51:43.272Z,6.75
2022-12-22T07:52:13.798Z,6.72
2022-12-22T07:52:44.843Z,6.73
2022-12-22T07:53:15.375Z,6.73
2022-12-22T07:53:45.916Z,6.75
2022-12-22T07:54:16.416Z,6.76
2022-12-22T07:54:46.949Z,6.83
2022-12-22T07:55:17.491Z,6.86
2022-12-22T07:55:48.003Z,6.86
2022-12-22T07:56:18.549Z,6.86
2022-12-22T07:56:49.086Z,6.86
2022-12-22T07:57:20.113Z,6.83
2022-12-22T07:57:50.650Z,6.83
2022-12-22T07:58:21.692Z,6.86
2022-12-22T07:58:52.251Z,6.83
2022-12-22T07:59:22.766Z,6.86
2022-12-22T07:59:53.325Z,6.82
2022-12-22T08:00:23.868Z,6.82
2022-12-22T08:00:54.460Z,6.79
2022-12-22T08:01:25.105Z,6.78
2022-12-22T08:01:55.843Z,6.78
2022-12-22T08:02:26.569Z,6.76
2022-12-22T08:02:57.431Z,6.73
2022-12-22T08:03:28.113Z,6.72
2022-12-22T08:03:58.646Z,6.71
2022-12-22T08:04:29.781Z,6.68
2022-12-22T08:05:00.409Z,6.65
2022-12-22T08:05:30.929Z,6.65
2022-12-22T08:06:01.445Z,6.65
2022-12-22T08:06:31.961Z,6.68
2022-12-22T08:07:02.491Z,6.68
2022-12-22T08:07:33.036Z,6.71
2022-12-22T08:08:03.576Z,6.72
2022-12-22T08:08:34.617Z,6.73
2022-12-22T08:09:05.166Z,6.73
2022-12-22T08:09:35.696Z,6.73
2022-12-22T08:10:06.233Z,6.72
2022-12-22T08:10:36.830Z,6.71
2022-12-22T08:11:07.368Z,6.71
2022-12-22T08:11:37.909Z,6.71
2022-12-22T08:12:08.422Z,6.72
2022-12-22T08:12:38.970Z,6.71
2022-12-22T08:13:09.596Z,6.72
2022-12-22T08:13:40.133Z,6.72
2022-12-22T08:14:10.686Z,6.72
2022-12-22T08:14:41.215Z,6.76
2022-12-22T08:15:11.771Z,6.79
2022-12-22T08:15:42.272Z,6.78
2022-12-22T08:16:12.863Z,6.79
2022-12-22T08:16:43.451Z,6.78
2022-12-22T08:17:13.983Z,6.79
2022-12-22T08:17:44.550Z,6.76
2022-12-22T08:18:15.085Z,6.79
2022-12-22T08:18:45.615Z,6.75
2022-12-22T08:19:16.166Z,6.75
2022-12-22T08:19:46.749Z,6.75
2022-12-22T08:20:17.329Z,6.73
2022-12-22T08:20:48.338Z,6.72
2022-12-22T08:21:19.436Z,6.73
2022-12-22T08:21:52.884Z,6.75
2022-12-22T08:22:20.750Z,6.79
2022-12-22T08:22:51.293Z,6.81
2022-12-22T08:23:21.821Z,6.79
2022-12-22T08:23:52.827Z,6.79
2022-12-22T08:24:23.874Z,6.75
2022-12-22T08:24:54.423Z,6.76
2022-12-22T08:25:24.991Z,6.73
2022-12-22T08:25:55.554Z,6.72
2022-12-22T08:26:26.580Z,6.72
2022-12-22T08:26:57.599Z,6.71
2022-12-22T08:27:28.637Z,6.69
2022-12-22T08:27:59.300Z,6.68
2022-12-22T08:28:29.824Z,6.65
2022-12-22T08:29:00.387Z,6.65
2022-12-22T08:29:30.923Z,6.64
2022-12-22T08:30:01.496Z,6.65